<?xml version="1.0" encoding="UTF-8"?>
<gpx version="1.1" creator="2bulu-scraper" xmlns="http://www.topografix.com/GPX/1/1">
  <metadata><name>内江东兴区</name><desc>source: 2bulu.com trackId=87198541; exported 2026-09-01T17:55:46.323Z</desc>
    <bounds minlat="29.6080348" minlon="105.0475815" maxlat="29.6172711" maxlon="105.0486279"/>
    <link href="https://www.2bulu.com/track/t-kWxzoxd1p0Tp%252FR2KBg5Tzw%253D%253D.htm"><text>2bulu 源页面</text></link>
  </metadata>
  <wpt lat="29.6080348" lon="105.0479049"><ele>292</ele><name>
        </name></wpt>
  <wpt lat="29.6081072" lon="105.0478447"><ele>294</ele><name>
        </name></wpt>
  <wpt lat="29.6083895" lon="105.0479129"><ele>290</ele><name>1
        </name></wpt>
  <wpt lat="29.6088156" lon="105.0479119"><ele>295</ele><name>
        </name></wpt>
  <wpt lat="29.6093171" lon="105.0480263"><ele>295</ele><name>路面凹凸不平
        </name></wpt>
  <wpt lat="29.609553" lon="105.0480479"><ele>294</ele><name>
        </name></wpt>
  <wpt lat="29.6098424" lon="105.048175"><ele>292</ele><name>
        </name></wpt>
  <wpt lat="29.610206" lon="105.048438"><ele>292</ele><name>
        </name></wpt>
  <wpt lat="29.610818" lon="105.0485605"><ele>292</ele><name>路宽2.5M
        </name></wpt>
  <wpt lat="29.610818" lon="105.0485605"><ele>292</ele><name>
        </name></wpt>
  <wpt lat="29.6113015" lon="105.0485869"><ele>289</ele><name>
        </name></wpt>
  <wpt lat="29.6117316" lon="105.0486279"><ele>287</ele><name>
        </name></wpt>
  <wpt lat="29.6118541" lon="105.0485461"><ele>286</ele><name>
        </name></wpt>
  <wpt lat="29.6123176" lon="105.0485509"><ele>292</ele><name>
        </name></wpt>
  <wpt lat="29.612471" lon="105.0485666"><ele>295</ele><name>
        </name></wpt>
  <wpt lat="29.6125785" lon="105.0485681"><ele>295</ele><name>
        </name></wpt>
  <wpt lat="29.6129279" lon="105.048465"><ele>292</ele><name>
        </name></wpt>
  <wpt lat="29.6130337" lon="105.0484683"><ele>291</ele><name>
        </name></wpt>
  <wpt lat="29.6132068" lon="105.0485197"><ele>288</ele><name>
        </name></wpt>
  <wpt lat="29.6134297" lon="105.0484669"><ele>286</ele><name>
        </name></wpt>
  <wpt lat="29.6136086" lon="105.0485263"><ele>284</ele><name>
        </name></wpt>
  <wpt lat="29.6141831" lon="105.0484641"><ele>281</ele><name>
        </name></wpt>
  <wpt lat="29.6143895" lon="105.048411"><ele>281</ele><name>
        </name></wpt>
  <wpt lat="29.6146628" lon="105.0484118"><ele>283</ele><name>
        </name></wpt>
  <wpt lat="29.6148025" lon="105.0484114"><ele>284</ele><name>
        </name></wpt>
  <wpt lat="29.6149032" lon="105.0484241"><ele>285</ele><name>1

        </name></wpt>
  <wpt lat="29.615255" lon="105.0483916"><ele>286</ele><name>
        </name></wpt>
  <wpt lat="29.6156115" lon="105.0483413"><ele>289</ele><name>
        </name></wpt>
  <wpt lat="29.6160541" lon="105.0483653"><ele>291</ele><name>
        </name></wpt>
  <wpt lat="29.616209" lon="105.0483749"><ele>292</ele><name>
        </name></wpt>
  <wpt lat="29.6167304" lon="105.0483082"><ele>291</ele><name>1
        </name></wpt>
  <wpt lat="29.6170162" lon="105.0483037"><ele>292</ele><name>
        </name></wpt>
  <wpt lat="29.6172371" lon="105.0479515"><ele>293</ele><name>
        </name></wpt>
  <wpt lat="29.6171683" lon="105.0479256"><ele>295</ele><name>
        </name></wpt>
  <wpt lat="29.6160744" lon="105.0480207"><ele>288</ele><name>
        </name></wpt>
  <wpt lat="29.6157949" lon="105.0480993"><ele>287</ele><name>
        </name></wpt>
  <wpt lat="29.6156701" lon="105.0480776"><ele>287</ele><name>
        </name></wpt>
  <wpt lat="29.6156027" lon="105.0480789"><ele>288</ele><name>
        </name></wpt>
  <wpt lat="29.6151926" lon="105.0480887"><ele>287</ele><name>
        </name></wpt>
  <wpt lat="29.6149654" lon="105.0480659"><ele>286</ele><name>
        </name></wpt>
  <wpt lat="29.6149654" lon="105.0480659"><ele>286</ele><name>1
        </name></wpt>
  <wpt lat="29.6145216" lon="105.0480953"><ele>285</ele><name>
        </name></wpt>
  <wpt lat="29.614143" lon="105.0481309"><ele>282</ele><name>
        </name></wpt>
  <wpt lat="29.613924" lon="105.0481393"><ele>281</ele><name>
        </name></wpt>
  <wpt lat="29.6136541" lon="105.0481366"><ele>282</ele><name>
        </name></wpt>
  <wpt lat="29.6131682" lon="105.0481542"><ele>282</ele><name>1
        </name></wpt>
  <wpt lat="29.6128868" lon="105.0481463"><ele>283</ele><name>
        </name></wpt>
  <wpt lat="29.6126511" lon="105.0481474"><ele>286</ele><name>
        </name></wpt>
  <wpt lat="29.6118954" lon="105.0481995"><ele>285</ele><name>
        </name></wpt>
  <wpt lat="29.6110356" lon="105.0482415"><ele>287</ele><name>
        </name></wpt>
  <wpt lat="29.610585" lon="105.0482238"><ele>293</ele><name>
        </name></wpt>
  <wpt lat="29.610585" lon="105.0482238"><ele>293</ele><name>
        </name></wpt>
  <wpt lat="29.6102122" lon="105.0481213"><ele>295</ele><name>
        </name></wpt>
  <wpt lat="29.6098179" lon="105.0479078"><ele>298</ele><name>
        </name></wpt>
  <wpt lat="29.6097001" lon="105.0478426"><ele>298</ele><name>
        </name></wpt>
  <wpt lat="29.6094061" lon="105.0477133"><ele>304</ele><name>1
        </name></wpt>
  <wpt lat="29.6081372" lon="105.047582"><ele>311</ele><name>
        </name></wpt>
  <trk><name>内江东兴区</name>
      <trkseg>
        <trkpt lat="29.6080348" lon="105.0479049"><ele>291.62</ele><time>2026-07-17T02:21:32.000Z</time></trkpt>
        <trkpt lat="29.6081072" lon="105.0478447"><ele>291.62</ele><time>2026-07-17T02:21:56.000Z</time></trkpt>
        <trkpt lat="29.6081756" lon="105.0478774"><ele>292.59</ele><time>2026-07-17T02:22:12.000Z</time></trkpt>
        <trkpt lat="29.6082845" lon="105.0479159"><ele>291.67</ele><time>2026-07-17T02:22:28.000Z</time></trkpt>
        <trkpt lat="29.6083895" lon="105.0479129"><ele>290.58</ele><time>2026-07-17T02:22:34.000Z</time></trkpt>
        <trkpt lat="29.6084488" lon="105.0479646"><ele>290.36</ele><time>2026-07-17T02:22:52.000Z</time></trkpt>
        <trkpt lat="29.6085151" lon="105.0479167"><ele>290.1</ele><time>2026-07-17T02:23:12.000Z</time></trkpt>
        <trkpt lat="29.6086026" lon="105.0478751"><ele>292.14</ele><time>2026-07-17T02:23:16.000Z</time></trkpt>
        <trkpt lat="29.6087063" lon="105.0479031"><ele>293.75</ele><time>2026-07-17T02:23:22.000Z</time></trkpt>
        <trkpt lat="29.6088156" lon="105.0479119"><ele>294.68</ele><time>2026-07-17T02:23:26.000Z</time></trkpt>
        <trkpt lat="29.6088863" lon="105.0479114"><ele>294.82</ele><time>2026-07-17T02:23:38.000Z</time></trkpt>
        <trkpt lat="29.6089908" lon="105.0479401"><ele>294.93</ele><time>2026-07-17T02:23:42.000Z</time></trkpt>
        <trkpt lat="29.6090966" lon="105.0479851"><ele>294.62</ele><time>2026-07-17T02:23:46.000Z</time></trkpt>
        <trkpt lat="29.6091948" lon="105.0479902"><ele>294.66</ele><time>2026-07-17T02:23:50.000Z</time></trkpt>
        <trkpt lat="29.6093171" lon="105.0480263"><ele>294.7</ele><time>2026-07-17T02:23:56.000Z</time></trkpt>
        <trkpt lat="29.6094085" lon="105.048026"><ele>294.73</ele><time>2026-07-17T02:24:10.000Z</time></trkpt>
        <trkpt lat="29.6094975" lon="105.0480418"><ele>293.81</ele><time>2026-07-17T02:24:46.000Z</time></trkpt>
        <trkpt lat="29.609553" lon="105.0480479"><ele>292.82</ele><time>2026-07-17T02:24:58.000Z</time></trkpt>
        <trkpt lat="29.609629" lon="105.0480941"><ele>293.18</ele><time>2026-07-17T02:25:16.000Z</time></trkpt>
        <trkpt lat="29.6097258" lon="105.0481537"><ele>292.45</ele><time>2026-07-17T02:25:20.000Z</time></trkpt>
        <trkpt lat="29.6098424" lon="105.048175"><ele>292.26</ele><time>2026-07-17T02:25:24.000Z</time></trkpt>
        <trkpt lat="29.6099122" lon="105.0482126"><ele>292.27</ele><time>2026-07-17T02:25:40.000Z</time></trkpt>
        <trkpt lat="29.6100023" lon="105.0482712"><ele>293.01</ele><time>2026-07-17T02:25:48.000Z</time></trkpt>
        <trkpt lat="29.6100843" lon="105.0483448"><ele>292.88</ele><time>2026-07-17T02:25:52.000Z</time></trkpt>
        <trkpt lat="29.6101571" lon="105.0484163"><ele>292.47</ele><time>2026-07-17T02:25:56.000Z</time></trkpt>
        <trkpt lat="29.610206" lon="105.048438"><ele>292.18</ele><time>2026-07-17T02:26:00.000Z</time></trkpt>
        <trkpt lat="29.6102829" lon="105.0484532"><ele>292.17</ele><time>2026-07-17T02:26:46.000Z</time></trkpt>
        <trkpt lat="29.6103743" lon="105.0484796"><ele>293.28</ele><time>2026-07-17T02:26:50.000Z</time></trkpt>
        <trkpt lat="29.6104756" lon="105.0484935"><ele>292.74</ele><time>2026-07-17T02:26:54.000Z</time></trkpt>
        <trkpt lat="29.6105848" lon="105.048513"><ele>292.6</ele><time>2026-07-17T02:26:58.000Z</time></trkpt>
        <trkpt lat="29.6106918" lon="105.0485331"><ele>292.59</ele><time>2026-07-17T02:27:02.000Z</time></trkpt>
        <trkpt lat="29.6107862" lon="105.0485482"><ele>293.26</ele><time>2026-07-17T02:27:06.000Z</time></trkpt>
        <trkpt lat="29.610818" lon="105.0485605"><ele>293.09</ele><time>2026-07-17T02:27:08.000Z</time></trkpt>
        <trkpt lat="29.6108854" lon="105.0485395"><ele>292.81</ele><time>2026-07-17T02:28:14.000Z</time></trkpt>
        <trkpt lat="29.6109885" lon="105.0485358"><ele>292.96</ele><time>2026-07-17T02:28:18.000Z</time></trkpt>
        <trkpt lat="29.6111039" lon="105.0485407"><ele>292.58</ele><time>2026-07-17T02:28:22.000Z</time></trkpt>
        <trkpt lat="29.6112085" lon="105.0485639"><ele>292.86</ele><time>2026-07-17T02:28:26.000Z</time></trkpt>
        <trkpt lat="29.6113015" lon="105.0485869"><ele>292.84</ele><time>2026-07-17T02:28:34.000Z</time></trkpt>
        <trkpt lat="29.6114215" lon="105.0485823"><ele>291.19</ele><time>2026-07-17T02:29:22.000Z</time></trkpt>
        <trkpt lat="29.611527" lon="105.0485828"><ele>289.91</ele><time>2026-07-17T02:29:26.000Z</time></trkpt>
        <trkpt lat="29.6116431" lon="105.0485854"><ele>289.23</ele><time>2026-07-17T02:29:32.000Z</time></trkpt>
        <trkpt lat="29.6117316" lon="105.0486279"><ele>288.58</ele><time>2026-07-17T02:29:40.000Z</time></trkpt>
        <trkpt lat="29.6118091" lon="105.0485683"><ele>287.93</ele><time>2026-07-17T02:30:04.000Z</time></trkpt>
        <trkpt lat="29.6118541" lon="105.0485461"><ele>287.21</ele><time>2026-07-17T02:30:08.000Z</time></trkpt>
        <trkpt lat="29.6119588" lon="105.0485285"><ele>286.88</ele><time>2026-07-17T02:30:20.000Z</time></trkpt>
        <trkpt lat="29.6120687" lon="105.0485304"><ele>286.63</ele><time>2026-07-17T02:30:24.000Z</time></trkpt>
        <trkpt lat="29.6121941" lon="105.0485463"><ele>287.74</ele><time>2026-07-17T02:30:28.000Z</time></trkpt>
        <trkpt lat="29.6123176" lon="105.0485509"><ele>289.31</ele><time>2026-07-17T02:30:32.000Z</time></trkpt>
        <trkpt lat="29.6123791" lon="105.048563"><ele>290.31</ele><time>2026-07-17T02:30:50.000Z</time></trkpt>
        <trkpt lat="29.612471" lon="105.0485666"><ele>290.93</ele><time>2026-07-17T02:31:02.000Z</time></trkpt>
        <trkpt lat="29.6125006" lon="105.0485681"><ele>292.65</ele><time>2026-07-17T02:31:06.000Z</time></trkpt>
        <trkpt lat="29.6125785" lon="105.0485681"><ele>293.7</ele><time>2026-07-17T02:31:16.000Z</time></trkpt>
        <trkpt lat="29.6126333" lon="105.0485567"><ele>294.17</ele><time>2026-07-17T02:31:22.000Z</time></trkpt>
        <trkpt lat="29.6127067" lon="105.0485191"><ele>293.88</ele><time>2026-07-17T02:31:36.000Z</time></trkpt>
        <trkpt lat="29.6127405" lon="105.048492"><ele>293.18</ele><time>2026-07-17T02:31:40.000Z</time></trkpt>
        <trkpt lat="29.6128317" lon="105.0484763"><ele>292.49</ele><time>2026-07-17T02:31:46.000Z</time></trkpt>
        <trkpt lat="29.6129279" lon="105.048465"><ele>292.31</ele><time>2026-07-17T02:31:56.000Z</time></trkpt>
        <trkpt lat="29.6130337" lon="105.0484683"><ele>292.11</ele><time>2026-07-17T02:33:56.000Z</time></trkpt>
        <trkpt lat="29.6131557" lon="105.0485233"><ele>291.61</ele><time>2026-07-17T02:34:14.000Z</time></trkpt>
        <trkpt lat="29.6132068" lon="105.0485197"><ele>290.52</ele><time>2026-07-17T02:34:22.000Z</time></trkpt>
        <trkpt lat="29.6133228" lon="105.0484813"><ele>289.49</ele><time>2026-07-17T02:34:32.000Z</time></trkpt>
        <trkpt lat="29.6134297" lon="105.0484669"><ele>288</ele><time>2026-07-17T02:34:36.000Z</time></trkpt>
        <trkpt lat="29.6135338" lon="105.04849"><ele>286.96</ele><time>2026-07-17T02:34:56.000Z</time></trkpt>
        <trkpt lat="29.6136086" lon="105.0485263"><ele>285.93</ele><time>2026-07-17T02:35:02.000Z</time></trkpt>
        <trkpt lat="29.6136967" lon="105.0485572"><ele>285.07</ele><time>2026-07-17T02:35:18.000Z</time></trkpt>
        <trkpt lat="29.6138375" lon="105.0485562"><ele>283.94</ele><time>2026-07-17T02:35:22.000Z</time></trkpt>
        <trkpt lat="29.6139954" lon="105.0485557"><ele>282.79</ele><time>2026-07-17T02:35:26.000Z</time></trkpt>
        <trkpt lat="29.6141183" lon="105.0485381"><ele>282.03</ele><time>2026-07-17T02:35:30.000Z</time></trkpt>
        <trkpt lat="29.6141831" lon="105.0484641"><ele>281.4</ele><time>2026-07-17T02:35:38.000Z</time></trkpt>
        <trkpt lat="29.6142812" lon="105.0484252"><ele>281.2</ele><time>2026-07-17T02:36:00.000Z</time></trkpt>
        <trkpt lat="29.6143895" lon="105.048411"><ele>280.93</ele><time>2026-07-17T02:36:04.000Z</time></trkpt>
        <trkpt lat="29.6145075" lon="105.0484063"><ele>280.89</ele><time>2026-07-17T02:36:20.000Z</time></trkpt>
        <trkpt lat="29.6146229" lon="105.0484103"><ele>280.94</ele><time>2026-07-17T02:36:24.000Z</time></trkpt>
        <trkpt lat="29.6146628" lon="105.0484118"><ele>281.77</ele><time>2026-07-17T02:36:26.000Z</time></trkpt>
        <trkpt lat="29.6147696" lon="105.048408"><ele>282.23</ele><time>2026-07-17T02:36:42.000Z</time></trkpt>
        <trkpt lat="29.6148025" lon="105.0484114"><ele>282.98</ele><time>2026-07-17T02:36:46.000Z</time></trkpt>
        <trkpt lat="29.6148745" lon="105.0484089"><ele>283.34</ele><time>2026-07-17T02:37:12.000Z</time></trkpt>
        <trkpt lat="29.6149032" lon="105.0484241"><ele>283.55</ele><time>2026-07-17T02:37:32.000Z</time></trkpt>
        <trkpt lat="29.6150077" lon="105.0484189"><ele>283.99</ele><time>2026-07-17T02:37:48.000Z</time></trkpt>
        <trkpt lat="29.6151126" lon="105.04841"><ele>284.11</ele><time>2026-07-17T02:37:50.000Z</time></trkpt>
        <trkpt lat="29.615255" lon="105.0483916"><ele>284.56</ele><time>2026-07-17T02:37:54.000Z</time></trkpt>
        <trkpt lat="29.6153279" lon="105.0483796"><ele>285.38</ele><time>2026-07-17T02:38:06.000Z</time></trkpt>
        <trkpt lat="29.6154431" lon="105.0483584"><ele>285.97</ele><time>2026-07-17T02:38:14.000Z</time></trkpt>
        <trkpt lat="29.6156115" lon="105.0483413"><ele>286.95</ele><time>2026-07-17T02:38:18.000Z</time></trkpt>
        <trkpt lat="29.6157516" lon="105.0483273"><ele>287.86</ele><time>2026-07-17T02:38:34.000Z</time></trkpt>
        <trkpt lat="29.6159009" lon="105.0483477"><ele>289.36</ele><time>2026-07-17T02:38:38.000Z</time></trkpt>
        <trkpt lat="29.6160541" lon="105.0483653"><ele>290.28</ele><time>2026-07-17T02:38:42.000Z</time></trkpt>
        <trkpt lat="29.6161" lon="105.048366"><ele>290.68</ele><time>2026-07-17T02:38:50.000Z</time></trkpt>
        <trkpt lat="29.616209" lon="105.0483749"><ele>291.2</ele><time>2026-07-17T02:38:58.000Z</time></trkpt>
        <trkpt lat="29.6163146" lon="105.0483513"><ele>291.69</ele><time>2026-07-17T02:39:16.000Z</time></trkpt>
        <trkpt lat="29.6164751" lon="105.0483265"><ele>291.45</ele><time>2026-07-17T02:39:20.000Z</time></trkpt>
        <trkpt lat="29.6165941" lon="105.0483128"><ele>291.15</ele><time>2026-07-17T02:39:22.000Z</time></trkpt>
        <trkpt lat="29.6167304" lon="105.0483082"><ele>290.67</ele><time>2026-07-17T02:39:26.000Z</time></trkpt>
        <trkpt lat="29.6167847" lon="105.0483172"><ele>290.82</ele><time>2026-07-17T02:39:38.000Z</time></trkpt>
        <trkpt lat="29.6168913" lon="105.048313"><ele>290.93</ele><time>2026-07-17T02:39:48.000Z</time></trkpt>
        <trkpt lat="29.6170162" lon="105.0483037"><ele>291.1</ele><time>2026-07-17T02:39:52.000Z</time></trkpt>
        <trkpt lat="29.6171447" lon="105.0483059"><ele>291.3</ele><time>2026-07-17T02:40:44.000Z</time></trkpt>
        <trkpt lat="29.6172072" lon="105.0483221"><ele>291.44</ele><time>2026-07-17T02:40:56.000Z</time></trkpt>
        <trkpt lat="29.6172711" lon="105.0482123"><ele>292.05</ele><time>2026-07-17T02:41:38.000Z</time></trkpt>
        <trkpt lat="29.6172677" lon="105.048078"><ele>292.4</ele><time>2026-07-17T02:41:42.000Z</time></trkpt>
        <trkpt lat="29.6172371" lon="105.0479515"><ele>292.95</ele><time>2026-07-17T02:41:48.000Z</time></trkpt>
        <trkpt lat="29.617242" lon="105.0479127"><ele>292.85</ele><time>2026-07-17T02:42:02.000Z</time></trkpt>
        <trkpt lat="29.6171683" lon="105.0479256"><ele>293.18</ele><time>2026-07-17T02:42:22.000Z</time></trkpt>
        <trkpt lat="29.6170613" lon="105.0479429"><ele>293.89</ele><time>2026-07-17T02:42:36.000Z</time></trkpt>
        <trkpt lat="29.6169455" lon="105.0479673"><ele>295.27</ele><time>2026-07-17T02:42:40.000Z</time></trkpt>
        <trkpt lat="29.6168091" lon="105.0479832"><ele>295.25</ele><time>2026-07-17T02:42:44.000Z</time></trkpt>
        <trkpt lat="29.6166278" lon="105.048"><ele>294.64</ele><time>2026-07-17T02:42:48.000Z</time></trkpt>
        <trkpt lat="29.6165065" lon="105.0480103"><ele>293.97</ele><time>2026-07-17T02:42:50.000Z</time></trkpt>
        <trkpt lat="29.6164113" lon="105.048011"><ele>293</ele><time>2026-07-17T02:42:52.000Z</time></trkpt>
        <trkpt lat="29.6163194" lon="105.0480126"><ele>292.13</ele><time>2026-07-17T02:42:54.000Z</time></trkpt>
        <trkpt lat="29.6162281" lon="105.0480218"><ele>291.29</ele><time>2026-07-17T02:42:56.000Z</time></trkpt>
        <trkpt lat="29.6161188" lon="105.0480203"><ele>290.68</ele><time>2026-07-17T02:43:00.000Z</time></trkpt>
        <trkpt lat="29.6160744" lon="105.0480207"><ele>289.77</ele><time>2026-07-17T02:43:06.000Z</time></trkpt>
        <trkpt lat="29.6160052" lon="105.0480852"><ele>288.86</ele><time>2026-07-17T02:43:26.000Z</time></trkpt>
        <trkpt lat="29.6158963" lon="105.0481098"><ele>288.25</ele><time>2026-07-17T02:43:32.000Z</time></trkpt>
        <trkpt lat="29.6157949" lon="105.0480993"><ele>287.76</ele><time>2026-07-17T02:43:40.000Z</time></trkpt>
        <trkpt lat="29.6156701" lon="105.0480776"><ele>287.5</ele><time>2026-07-17T02:44:04.000Z</time></trkpt>
        <trkpt lat="29.6156027" lon="105.0480789"><ele>287.37</ele><time>2026-07-17T02:44:12.000Z</time></trkpt>
        <trkpt lat="29.6154925" lon="105.0480835"><ele>287.58</ele><time>2026-07-17T02:44:30.000Z</time></trkpt>
        <trkpt lat="29.6153332" lon="105.0480922"><ele>287.33</ele><time>2026-07-17T02:44:34.000Z</time></trkpt>
        <trkpt lat="29.6151926" lon="105.0480887"><ele>287.34</ele><time>2026-07-17T02:44:38.000Z</time></trkpt>
        <trkpt lat="29.6150813" lon="105.0480711"><ele>287.36</ele><time>2026-07-17T02:44:54.000Z</time></trkpt>
        <trkpt lat="29.6149654" lon="105.0480659"><ele>286.92</ele><time>2026-07-17T02:44:58.000Z</time></trkpt>
        <trkpt lat="29.6148926" lon="105.0480754"><ele>286.39</ele><time>2026-07-17T02:45:18.000Z</time></trkpt>
        <trkpt lat="29.614802" lon="105.0480866"><ele>286.34</ele><time>2026-07-17T02:45:36.000Z</time></trkpt>
        <trkpt lat="29.6147117" lon="105.04804"><ele>285.9</ele><time>2026-07-17T02:45:50.000Z</time></trkpt>
        <trkpt lat="29.6146052" lon="105.0480652"><ele>285.95</ele><time>2026-07-17T02:45:56.000Z</time></trkpt>
        <trkpt lat="29.6145216" lon="105.0480953"><ele>285.91</ele><time>2026-07-17T02:46:02.000Z</time></trkpt>
        <trkpt lat="29.6143791" lon="105.0481098"><ele>285.59</ele><time>2026-07-17T02:46:16.000Z</time></trkpt>
        <trkpt lat="29.6142655" lon="105.048121"><ele>284.37</ele><time>2026-07-17T02:46:18.000Z</time></trkpt>
        <trkpt lat="29.614143" lon="105.0481309"><ele>283.62</ele><time>2026-07-17T02:46:22.000Z</time></trkpt>
        <trkpt lat="29.6140024" lon="105.0481336"><ele>282.89</ele><time>2026-07-17T02:46:40.000Z</time></trkpt>
        <trkpt lat="29.613924" lon="105.0481393"><ele>281.9</ele><time>2026-07-17T02:46:46.000Z</time></trkpt>
        <trkpt lat="29.6138325" lon="105.04813"><ele>281.49</ele><time>2026-07-17T02:47:24.000Z</time></trkpt>
        <trkpt lat="29.613707" lon="105.0481334"><ele>280.94</ele><time>2026-07-17T02:47:28.000Z</time></trkpt>
        <trkpt lat="29.6136541" lon="105.0481366"><ele>281.1</ele><time>2026-07-17T02:47:30.000Z</time></trkpt>
        <trkpt lat="29.6135401" lon="105.0481215"><ele>281.43</ele><time>2026-07-17T02:47:42.000Z</time></trkpt>
        <trkpt lat="29.6133838" lon="105.0481323"><ele>281.55</ele><time>2026-07-17T02:47:46.000Z</time></trkpt>
        <trkpt lat="29.6132693" lon="105.0481451"><ele>281.33</ele><time>2026-07-17T02:47:48.000Z</time></trkpt>
        <trkpt lat="29.6131682" lon="105.0481542"><ele>281.39</ele><time>2026-07-17T02:47:50.000Z</time></trkpt>
        <trkpt lat="29.6130767" lon="105.0481744"><ele>281.75</ele><time>2026-07-17T02:48:06.000Z</time></trkpt>
        <trkpt lat="29.6129782" lon="105.048172"><ele>282.67</ele><time>2026-07-17T02:48:12.000Z</time></trkpt>
        <trkpt lat="29.6128868" lon="105.0481463"><ele>282.99</ele><time>2026-07-17T02:48:16.000Z</time></trkpt>
        <trkpt lat="29.6127833" lon="105.0481441"><ele>282.8</ele><time>2026-07-17T02:48:30.000Z</time></trkpt>
        <trkpt lat="29.6126511" lon="105.0481474"><ele>283.71</ele><time>2026-07-17T02:48:34.000Z</time></trkpt>
        <trkpt lat="29.6125507" lon="105.0481567"><ele>284.68</ele><time>2026-07-17T02:48:44.000Z</time></trkpt>
        <trkpt lat="29.6124198" lon="105.0481741"><ele>285.63</ele><time>2026-07-17T02:48:52.000Z</time></trkpt>
        <trkpt lat="29.6123038" lon="105.0481869"><ele>285.78</ele><time>2026-07-17T02:48:54.000Z</time></trkpt>
        <trkpt lat="29.6121934" lon="105.048197"><ele>285.84</ele><time>2026-07-17T02:48:56.000Z</time></trkpt>
        <trkpt lat="29.6120864" lon="105.0482024"><ele>285.34</ele><time>2026-07-17T02:48:58.000Z</time></trkpt>
        <trkpt lat="29.6119909" lon="105.0482006"><ele>285.12</ele><time>2026-07-17T02:49:00.000Z</time></trkpt>
        <trkpt lat="29.6118954" lon="105.0481995"><ele>284.95</ele><time>2026-07-17T02:49:04.000Z</time></trkpt>
        <trkpt lat="29.6117971" lon="105.0481779"><ele>284.76</ele><time>2026-07-17T02:49:20.000Z</time></trkpt>
        <trkpt lat="29.6117405" lon="105.0481869"><ele>284.36</ele><time>2026-07-17T02:49:38.000Z</time></trkpt>
        <trkpt lat="29.6116039" lon="105.0482349"><ele>283.78</ele><time>2026-07-17T02:50:44.000Z</time></trkpt>
        <trkpt lat="29.6114705" lon="105.0482382"><ele>284.75</ele><time>2026-07-17T02:50:48.000Z</time></trkpt>
        <trkpt lat="29.611337" lon="105.0482102"><ele>285.6</ele><time>2026-07-17T02:50:52.000Z</time></trkpt>
        <trkpt lat="29.6112216" lon="105.0481913"><ele>285.88</ele><time>2026-07-17T02:50:58.000Z</time></trkpt>
        <trkpt lat="29.6111269" lon="105.0482304"><ele>285.79</ele><time>2026-07-17T02:51:06.000Z</time></trkpt>
        <trkpt lat="29.6110356" lon="105.0482415"><ele>285.81</ele><time>2026-07-17T02:51:14.000Z</time></trkpt>
        <trkpt lat="29.6109462" lon="105.0482755"><ele>286.2</ele><time>2026-07-17T02:51:28.000Z</time></trkpt>
        <trkpt lat="29.6108324" lon="105.0482807"><ele>287.76</ele><time>2026-07-17T02:51:34.000Z</time></trkpt>
        <trkpt lat="29.6107044" lon="105.0482605"><ele>289.41</ele><time>2026-07-17T02:51:38.000Z</time></trkpt>
        <trkpt lat="29.610585" lon="105.0482238"><ele>290.78</ele><time>2026-07-17T02:51:42.000Z</time></trkpt>
        <trkpt lat="29.6105056" lon="105.0482086"><ele>291.92</ele><time>2026-07-17T02:51:56.000Z</time></trkpt>
        <trkpt lat="29.6104089" lon="105.0482114"><ele>293.07</ele><time>2026-07-17T02:52:04.000Z</time></trkpt>
        <trkpt lat="29.610315" lon="105.0481793"><ele>294.16</ele><time>2026-07-17T02:52:08.000Z</time></trkpt>
        <trkpt lat="29.6102122" lon="105.0481213"><ele>294.37</ele><time>2026-07-17T02:52:12.000Z</time></trkpt>
        <trkpt lat="29.6101247" lon="105.0480653"><ele>294.74</ele><time>2026-07-17T02:52:22.000Z</time></trkpt>
        <trkpt lat="29.6100201" lon="105.0480116"><ele>296.24</ele><time>2026-07-17T02:52:28.000Z</time></trkpt>
        <trkpt lat="29.6099104" lon="105.0479656"><ele>297.17</ele><time>2026-07-17T02:52:34.000Z</time></trkpt>
        <trkpt lat="29.6098179" lon="105.0479078"><ele>297.03</ele><time>2026-07-17T02:52:38.000Z</time></trkpt>
        <trkpt lat="29.6097001" lon="105.0478426"><ele>297.25</ele><time>2026-07-17T02:53:06.000Z</time></trkpt>
        <trkpt lat="29.6096135" lon="105.0478273"><ele>297.66</ele><time>2026-07-17T02:53:18.000Z</time></trkpt>
        <trkpt lat="29.6095413" lon="105.0477578"><ele>300.24</ele><time>2026-07-17T02:53:22.000Z</time></trkpt>
        <trkpt lat="29.6094061" lon="105.0477133"><ele>302.17</ele><time>2026-07-17T02:53:26.000Z</time></trkpt>
        <trkpt lat="29.609307" lon="105.0476884"><ele>303.16</ele><time>2026-07-17T02:53:40.000Z</time></trkpt>
        <trkpt lat="29.6091995" lon="105.0476673"><ele>302.81</ele><time>2026-07-17T02:53:48.000Z</time></trkpt>
        <trkpt lat="29.6090662" lon="105.0476497"><ele>303.35</ele><time>2026-07-17T02:53:52.000Z</time></trkpt>
        <trkpt lat="29.6089309" lon="105.0476219"><ele>304.98</ele><time>2026-07-17T02:53:56.000Z</time></trkpt>
        <trkpt lat="29.6088238" lon="105.0476181"><ele>306.58</ele><time>2026-07-17T02:54:00.000Z</time></trkpt>
        <trkpt lat="29.6086912" lon="105.0475923"><ele>307.87</ele><time>2026-07-17T02:54:04.000Z</time></trkpt>
        <trkpt lat="29.6085265" lon="105.0475815"><ele>309.27</ele><time>2026-07-17T02:54:08.000Z</time></trkpt>
        <trkpt lat="29.6084113" lon="105.0475853"><ele>311.56</ele><time>2026-07-17T02:54:10.000Z</time></trkpt>
        <trkpt lat="29.6082826" lon="105.0475857"><ele>312.47</ele><time>2026-07-17T02:54:14.000Z</time></trkpt>
        <trkpt lat="29.6081642" lon="105.0475828"><ele>312.66</ele><time>2026-07-17T02:54:20.000Z</time></trkpt>
        <trkpt lat="29.6081372" lon="105.047582"><ele>312.32</ele><time>2026-07-17T02:54:26.000Z</time></trkpt>
        <trkpt lat="29.6081372" lon="105.047582"><ele>312.32</ele><time>2026-07-17T02:55:33.000Z</time></trkpt>
      </trkseg>
  </trk>
</gpx>